Time;durP1;ratioP1;P1;durP2;ratioP2;P2;SDS_P1;SDS_P2;PMS_P1;PMS_P2;Temp;Humidity;BMP_temperature;BMP_pressure;BME280_temperature;BME280_humidity;BME280_pressure;Samples;Min_cycle;Max_cycle;Signal;HPM_P1;HPM_P2
2023/06/04 00:01:56;;;;;;;2.60;1.90;;;;;;;23.52;35.82;100969.70;105592;1297;67622;-87
2023/06/04 00:04:23;;;;;;;4.20;2.00;;;;;;;23.52;35.90;100974.63;105484;1297;68106;-87
2023/06/04 00:09:28;;;;;;;1.80;1.70;;;;;;;23.52;35.91;100986.70;105481;1299;68448;-87
2023/06/04 00:11:55;;;;;;;2.40;1.90;;;;;;;23.51;35.78;100983.73;105433;1299;67905;-87
2023/06/04 00:14:23;;;;;;;3.70;2.10;;;;;;;23.51;35.80;100983.58;105319;1300;67930;-87
2023/06/04 00:16:48;;;;;;;2.10;1.70;;;;;;;23.52;35.79;100984.45;105422;1298;75320;-87
2023/06/04 00:19:14;;;;;;;3.40;1.60;;;;;;;23.51;35.78;100979.56;105483;1298;67115;-87
2023/06/04 00:21:40;;;;;;;2.80;1.90;;;;;;;23.51;35.76;100977.92;105424;1299;67894;-88
2023/06/04 00:24:06;;;;;;;2.90;1.80;;;;;;;23.51;35.87;100977.77;105349;1299;68021;-87
2023/06/04 00:26:31;;;;;;;2.10;1.80;;;;;;;23.51;35.78;100979.81;105497;1299;69206;-86
2023/06/04 00:28:57;;;;;;;3.40;1.80;;;;;;;23.51;35.72;100983.42;105512;1299;67310;-87
2023/06/04 00:31:23;;;;;;;2.10;1.90;;;;;;;23.51;35.62;100986.86;105403;1299;68126;-87
2023/06/04 00:33:52;;;;;;;2.20;1.90;;;;;;;23.51;35.70;100997.19;105385;1298;68152;-92
2023/06/04 00:36:18;;;;;;;3.10;1.90;;;;;;;23.50;35.76;100997.60;105324;1299;67848;-87
2023/06/04 00:38:44;;;;;;;3.10;1.70;;;;;;;23.50;35.58;100998.73;105270;1300;67680;-87
2023/06/04 00:41:09;;;;;;;3.40;2.00;;;;;;;23.50;35.68;100997.09;105272;1299;67816;-87
2023/06/04 00:43:35;;;;;;;4.90;1.80;;;;;;;23.50;35.58;101000.53;105409;1299;67870;-87
2023/06/04 00:46:03;;;;;;;1.90;1.70;;;;;;;23.50;35.57;100994.56;105373;1299;68313;-87
2023/06/04 00:48:30;;;;;;;3.60;1.80;;;;;;;23.50;35.58;100991.84;105180;1300;67886;-87
2023/06/04 00:50:59;;;;;;;2.00;1.70;;;;;;;23.49;35.49;100989.69;105382;1298;67832;-87
2023/06/04 00:53:30;;;;;;;3.20;2.20;;;;;;;23.49;35.56;100984.60;105474;1299;72773;-87
2023/06/04 00:55:55;;;;;;;3.70;2.10;;;;;;;23.49;35.63;100982.77;105424;1299;68023;-87
2023/06/04 00:58:24;;;;;;;2.60;1.80;;;;;;;23.49;35.57;100985.12;105441;1298;68126;-87
2023/06/04 01:00:52;;;;;;;1.80;1.50;;;;;;;23.49;35.58;100988.77;105339;1298;67164;-88
2023/06/04 01:03:18;;;;;;;2.00;1.80;;;;;;;23.48;35.59;100985.17;105258;1299;74177;-86
2023/06/04 01:05:50;;;;;;;2.10;1.70;;;;;;;23.49;35.43;100983.27;105376;1302;67785;-87
2023/06/04 01:08:16;;;;;;;3.10;1.80;;;;;;;23.48;35.32;100987.28;105220;1299;68436;-86
2023/06/04 01:10:55;;;;;;;2.20;1.60;;;;;;;23.48;35.52;100986.56;105182;1299;67822;-87
2023/06/04 01:13:20;;;;;;;2.30;1.80;;;;;;;23.48;35.55;100987.79;105286;1299;67773;-87
2023/06/04 01:15:46;;;;;;;11.60;2.40;;;;;;;23.47;35.45;100984.35;105277;1298;67898;-87
2023/06/04 01:18:13;;;;;;;2.70;1.90;;;;;;;23.48;35.44;100987.33;105270;1299;67397;-87
2023/06/04 01:20:44;;;;;;;4.00;1.90;;;;;;;23.47;35.36;100986.30;105408;1299;68381;-86
2023/06/04 01:23:19;;;;;;;;;;;;;;;23.47;35.36;100991.90;105301;1300;67765;-86
2023/06/04 01:25:49;;;;;;;2.00;1.70;;;;;;;23.44;35.46;100991.65;105439;1299;67879;-86
2023/06/04 01:28:15;;;;;;;4.00;1.80;;;;;;;23.45;35.42;100993.30;105228;1300;75109;-86
2023/06/04 01:30:45;;;;;;;2.60;1.70;;;;;;;23.44;35.42;100991.86;105271;1299;67788;-87
2023/06/04 01:33:12;;;;;;;1.90;1.80;;;;;;;23.44;35.30;100992.98;105300;1299;68001;-86
2023/06/04 01:35:38;;;;;;;3.30;2.00;;;;;;;23.44;35.44;100997.09;105386;1301;68432;-86
2023/06/04 01:38:03;;;;;;;2.50;1.60;;;;;;;23.45;35.29;100997.00;105277;1299;67829;-86
2023/06/04 01:40:29;;;;;;;2.70;1.70;;;;;;;23.44;35.37;100998.63;105359;1305;67858;-87
2023/06/04 01:42:55;;;;;;;3.40;2.00;;;;;;;23.45;35.23;101007.58;105248;1299;67863;-87
2023/06/04 01:48:10;;;;;;;1.90;1.60;;;;;;;23.44;35.27;101009.63;102578;1298;67867;-87
2023/06/04 01:50:36;;;;;;;2.10;1.50;;;;;;;23.44;35.24;101007.84;105437;1297;67747;-87
2023/06/04 01:53:02;;;;;;;3.90;1.80;;;;;;;23.45;35.35;101013.95;105399;1300;67679;-87
2023/06/04 01:55:29;;;;;;;2.80;1.70;;;;;;;23.44;35.17;101011.94;105428;1298;67792;-87
2023/06/04 01:57:55;;;;;;;2.50;1.90;;;;;;;23.45;35.18;101011.42;105481;1298;67791;-87
2023/06/04 02:03:00;;;;;;;2.10;1.80;;;;;;;23.44;35.05;101008.91;105652;1296;68194;-87
2023/06/04 02:05:26;;;;;;;2.10;1.50;;;;;;;23.44;34.98;101011.73;105547;1297;67761;-87
2023/06/04 02:07:52;;;;;;;2.70;1.80;;;;;;;23.44;34.91;101011.16;105581;1297;67718;-87
2023/06/04 02:10:18;;;;;;;3.10;1.80;;;;;;;23.44;35.03;101008.34;105514;1297;68055;-87
2023/06/04 02:13:02;;;;;;;3.10;1.80;;;;;;;23.44;34.90;101009.27;105444;1296;67908;-87
2023/06/04 02:15:31;;;;;;;1.70;1.60;;;;;;;23.43;34.89;101010.35;105470;1295;67826;-92
2023/06/04 02:18:02;;;;;;;2.20;1.80;;;;;;;23.43;34.90;101014.30;105503;1297;74487;-86
2023/06/04 02:20:28;;;;;;;2.00;1.70;;;;;;;23.43;35.15;101015.84;105536;1296;67930;-87
2023/06/04 02:22:56;;;;;;;2.60;1.60;;;;;;;23.43;35.07;101012.87;105418;1297;67282;-86
2023/06/04 02:25:25;;;;;;;4.00;1.70;;;;;;;23.43;35.01;101015.23;105502;1297;67145;-86
2023/06/04 02:27:51;;;;;;;2.00;1.70;;;;;;;23.42;34.97;101015.02;105536;1297;67681;-87
2023/06/04 02:32:50;;;;;;;3.90;1.70;;;;;;;23.42;34.83;101024.31;105620;1297;68449;-87
2023/06/04 02:35:17;;;;;;;1.90;1.70;;;;;;;23.42;34.80;101026.27;105514;1297;68258;-86
2023/06/04 02:37:43;;;;;;;1.70;1.50;;;;;;;23.41;34.82;101022.88;105477;1297;67901;-86
2023/06/04 02:40:10;;;;;;;2.30;1.60;;;;;;;23.42;34.75;101030.38;105443;1295;67792;-87
2023/06/04 02:42:36;;;;;;;1.90;1.60;;;;;;;23.41;34.90;101033.40;105575;1296;67880;-87
2023/06/04 02:45:01;;;;;;;2.00;1.60;;;;;;;23.41;34.80;101036.23;105486;1295;67610;-87
2023/06/04 02:47:27;;;;;;;2.30;1.60;;;;;;;23.41;34.83;101041.21;105414;1298;67197;-86
2023/06/04 02:49:53;;;;;;;2.70;1.60;;;;;;;23.41;34.85;101045.43;105486;1296;67838;-87
2023/06/04 02:52:18;;;;;;;2.20;1.70;;;;;;;23.41;34.76;101048.72;105604;1296;69318;-86
2023/06/04 02:54:44;;;;;;;3.00;1.70;;;;;;;23.41;34.70;101058.73;105434;1296;67893;-86
2023/06/04 02:59:43;;;;;;;3.60;1.60;;;;;;;23.41;34.69;101051.33;105635;1297;67739;-86
2023/06/04 03:02:10;;;;;;;2.20;1.70;;;;;;;23.40;34.66;101051.28;105548;1297;68020;-86
2023/06/04 03:04:36;;;;;;;3.60;1.70;;;;;;;23.40;34.59;101050.55;105550;1297;67843;-87
2023/06/04 03:07:02;;;;;;;3.10;1.80;;;;;;;23.41;34.69;101054.00;105439;1297;68509;-86
2023/06/04 03:09:30;;;;;;;2.20;1.40;;;;;;;23.40;34.52;101051.43;105434;1297;67812;-87
2023/06/04 03:11:57;;;;;;;1.80;1.50;;;;;;;23.40;34.57;101052.92;105493;1296;67707;-86
2023/06/04 03:14:23;;;;;;;2.10;1.50;;;;;;;23.39;34.56;101055.38;105433;1302;68073;-86
2023/06/04 03:16:51;;;;;;;3.60;1.60;;;;;;;23.40;34.41;101058.27;105578;1297;67984;-87
2023/06/04 03:19:17;;;;;;;4.20;1.50;;;;;;;23.39;34.44;101062.83;105347;1297;67245;-86
2023/06/04 03:21:42;;;;;;;2.00;1.40;;;;;;;23.39;34.45;101061.60;105620;1297;67811;-87
2023/06/04 03:24:17;;;;;;;1.70;1.40;;;;;;;23.39;34.52;101064.84;105419;1297;68246;-92
2023/06/04 03:26:43;;;;;;;3.90;1.50;;;;;;;23.39;34.48;101068.17;105536;1297;67871;-86
2023/06/04 03:29:08;;;;;;;1.90;1.60;;;;;;;23.38;34.26;101072.64;105533;1297;68091;-86
2023/06/04 03:31:34;;;;;;;2.30;1.40;;;;;;;23.39;34.28;101073.67;105441;1297;67623;-86
2023/06/04 03:34:03;;;;;;;3.30;1.60;;;;;;;23.38;34.35;101072.59;105430;1297;67146;-86
2023/06/04 03:36:37;;;;;;;1.70;1.50;;;;;;;23.39;34.44;101076.80;105487;1297;68522;-87
2023/06/04 03:39:12;;;;;;;2.40;1.60;;;;;;;23.38;34.37;101076.55;105460;1297;67707;-92
2023/06/04 03:41:38;;;;;;;2.90;1.80;;;;;;;23.38;34.30;101076.54;105417;1299;74465;-87
2023/06/04 03:44:04;;;;;;;1.60;1.30;;;;;;;23.38;34.34;101084.11;105357;1299;67783;-86
2023/06/04 03:46:33;;;;;;;2.80;1.50;;;;;;;23.37;34.21;101086.20;105312;1305;67796;-86
2023/06/04 03:48:59;;;;;;;2.20;1.60;;;;;;;23.38;34.22;101088.66;105347;1300;67773;-86
2023/06/04 03:51:25;;;;;;;1.70;1.40;;;;;;;23.37;34.32;101088.05;105381;1299;68081;-87
2023/06/04 03:53:50;;;;;;;1.60;1.50;;;;;;;23.37;34.23;101092.46;105260;1300;67625;-86
2023/06/04 03:56:16;;;;;;;4.00;1.50;;;;;;;23.37;34.19;101098.89;105241;1299;67823;-86
2023/06/04 03:58:42;;;;;;;3.00;1.90;;;;;;;23.37;34.12;101103.52;105351;1299;67978;-86
2023/06/04 04:01:18;;;;;;;2.10;1.50;;;;;;;23.36;34.01;101105.56;105370;1297;67451;-86
2023/06/04 04:03:48;;;;;;;1.80;1.40;;;;;;;23.36;34.13;101107.77;105369;1299;76027;-87
2023/06/04 04:06:19;;;;;;;2.90;1.50;;;;;;;23.36;34.10;101111.16;105432;1300;67134;-86
2023/06/04 04:08:45;;;;;;;2.30;1.30;;;;;;;23.36;34.09;101113.27;105419;1299;68551;-86
2023/06/04 04:11:20;;;;;;;2.80;1.50;;;;;;;23.36;34.14;101110.34;105405;1299;67792;-86
2023/06/04 04:13:46;;;;;;;2.70;1.50;;;;;;;23.35;34.00;101108.49;105377;1299;67885;-86
2023/06/04 04:16:11;;;;;;;2.30;1.30;;;;;;;23.36;34.01;101106.75;105263;1300;67899;-86
2023/06/04 04:18:37;;;;;;;2.60;1.50;;;;;;;23.35;34.08;101106.95;105331;1297;67198;-86
2023/06/04 04:21:03;;;;;;;2.00;1.50;;;;;;;23.36;34.02;101110.86;105418;1304;67848;-92
2023/06/04 04:23:30;;;;;;;4.50;1.80;;;;;;;23.35;33.95;101114.20;105363;1299;67898;-86
2023/06/04 04:26:01;;;;;;;1.90;1.40;;;;;;;23.35;33.96;101120.81;105682;1298;68283;-86
2023/06/04 04:28:28;;;;;;;3.00;1.50;;;;;;;23.35;34.02;101121.64;105806;1299;74590;-86
2023/06/04 04:30:57;;;;;;;3.40;1.30;;;;;;;23.35;33.94;101123.04;105512;1302;67713;-87
2023/06/04 04:33:24;;;;;;;3.20;1.60;;;;;;;23.35;33.92;101128.52;105477;1299;67860;-87
2023/06/04 04:38:34;;;;;;;2.70;1.40;;;;;;;23.34;33.99;101132.98;105780;1299;67974;-86
2023/06/04 04:41:00;;;;;;;3.20;1.40;;;;;;;23.34;34.00;101128.20;105692;1298;68116;-86
2023/06/04 04:43:30;;;;;;;2.20;1.40;;;;;;;23.34;34.07;101132.02;105356;1299;67266;-86
2023/06/04 04:45:55;;;;;;;1.70;1.40;;;;;;;23.34;33.95;101136.48;105357;1301;68491;-86
2023/06/04 04:48:21;;;;;;;1.90;1.50;;;;;;;23.35;33.86;101133.75;105397;1298;67908;-86
2023/06/04 04:50:47;;;;;;;1.40;1.30;;;;;;;23.35;33.89;101139.41;105328;1301;67158;-87
2023/06/04 04:53:13;;;;;;;2.60;1.50;;;;;;;23.35;34.03;101142.75;105384;1299;68423;-86
2023/06/04 04:55:38;;;;;;;4.10;1.50;;;;;;;23.35;33.93;101143.97;105279;1299;67913;-86
2023/06/04 04:58:04;;;;;;;2.50;1.50;;;;;;;23.35;33.94;101147.92;105409;1299;68056;-87
2023/06/04 05:00:30;;;;;;;2.50;1.50;;;;;;;23.35;33.82;101147.16;105282;1299;67087;-87
2023/06/04 05:02:56;;;;;;;1.80;1.30;;;;;;;23.35;33.81;101152.76;105388;1299;68278;-87
2023/06/04 05:05:21;;;;;;;3.40;1.50;;;;;;;23.35;33.85;101155.27;105224;1299;68027;-86
2023/06/04 05:07:47;;;;;;;2.70;1.50;;;;;;;23.35;33.74;101153.99;105346;1299;68431;-86
2023/06/04 05:10:13;;;;;;;1.70;1.20;;;;;;;23.35;33.78;101156.35;105382;1299;67850;-86
2023/06/04 05:12:38;;;;;;;1.80;1.20;;;;;;;23.35;33.90;101160.08;105353;1299;67393;-86
2023/06/04 05:15:04;;;;;;;2.60;1.60;;;;;;;23.36;33.76;101165.23;105407;1299;67157;-87
2023/06/04 05:17:30;;;;;;;1.40;1.20;;;;;;;23.35;33.75;101163.33;105391;1299;68071;-86
2023/06/04 05:20:11;;;;;;;4.40;1.60;;;;;;;23.35;33.82;101164.46;105424;1299;67898;-87
2023/06/04 05:22:40;;;;;;;3.90;1.50;;;;;;;23.35;33.77;101168.27;105365;1299;67887;-86
2023/06/04 05:25:06;;;;;;;1.90;1.70;;;;;;;23.36;33.75;101171.44;105387;1299;74218;-87
2023/06/04 05:27:32;;;;;;;2.90;1.50;;;;;;;23.35;33.84;101172.84;105384;1299;67935;-87
2023/06/04 05:29:58;;;;;;;2.40;1.30;;;;;;;23.36;33.77;101170.20;105236;1302;68597;-87
2023/06/04 05:32:28;;;;;;;1.90;1.20;;;;;;;23.36;33.78;101173.70;105205;1299;67621;-87
2023/06/04 05:34:57;;;;;;;3.00;1.60;;;;;;;23.36;33.81;101172.16;105354;1299;67246;-87
2023/06/04 05:37:23;;;;;;;3.60;1.60;;;;;;;23.36;33.92;101174.16;105424;1299;75337;-87
2023/06/04 05:39:50;;;;;;;3.00;1.50;;;;;;;23.36;33.75;101173.50;105425;1301;67695;-87
2023/06/04 05:42:15;;;;;;;3.20;1.40;;;;;;;23.36;33.87;101176.32;105350;1298;67849;-87
2023/06/04 05:44:50;;;;;;;2.80;1.30;;;;;;;23.37;33.74;101181.45;105449;1299;67742;-92
2023/06/04 05:47:18;;;;;;;2.50;1.70;;;;;;;23.37;33.70;101176.94;105322;1300;67143;-86
2023/06/04 05:49:44;;;;;;;2.30;1.60;;;;;;;23.37;33.67;101178.99;105242;1299;74470;-87
2023/06/04 05:52:10;;;;;;;1.80;1.40;;;;;;;23.38;33.60;101178.58;105373;1299;67884;-86
2023/06/04 05:54:37;;;;;;;1.40;1.30;;;;;;;23.38;33.69;101176.42;105324;1299;67074;-87
2023/06/04 05:57:04;;;;;;;1.70;1.40;;;;;;;23.38;33.73;101177.14;105408;1299;67990;-87
2023/06/04 06:02:09;;;;;;;1.70;1.40;;;;;;;23.39;33.77;101180.27;105564;1296;74555;-87
2023/06/04 06:04:36;;;;;;;1.80;1.50;;;;;;;23.40;33.75;101185.77;105446;1296;67858;-87
2023/06/04 06:07:02;;;;;;;2.60;1.70;;;;;;;23.41;33.82;101190.14;105418;1297;67669;-87
2023/06/04 06:09:27;;;;;;;4.20;1.70;;;;;;;23.41;33.78;101194.04;105530;1299;67751;-87
2023/06/04 06:11:53;;;;;;;2.60;1.40;;;;;;;23.42;33.69;101192.40;105418;1297;68439;-87
2023/06/04 06:14:19;;;;;;;3.70;1.80;;;;;;;23.43;33.81;101195.75;105445;1297;67171;-87
2023/06/04 06:16:45;;;;;;;1.50;1.30;;;;;;;23.43;33.72;101194.11;105425;1297;67814;-87
2023/06/04 06:19:11;;;;;;;2.40;1.40;;;;;;;23.44;33.65;101193.80;105457;1296;67952;-87
2023/06/04 06:21:36;;;;;;;3.60;1.30;;;;;;;23.45;33.56;101194.62;105614;1297;67841;-87
2023/06/04 06:24:02;;;;;;;3.00;1.50;;;;;;;23.46;33.74;101194.16;105442;1297;67829;-87
2023/06/04 06:29:01;;;;;;;2.50;1.30;;;;;;;23.46;33.71;101199.14;105609;1296;67836;-87
2023/06/04 06:31:27;;;;;;;1.80;1.40;;;;;;;23.46;33.68;101196.88;105564;1296;68572;-87
2023/06/04 06:33:52;;;;;;;2.80;1.30;;;;;;;23.47;33.64;101196.00;105489;1296;69544;-87
2023/06/04 06:36:18;;;;;;;3.10;1.50;;;;;;;23.47;33.71;101196.42;105595;1296;67115;-87
2023/06/04 06:38:45;;;;;;;1.40;1.30;;;;;;;23.47;33.65;101194.63;105501;1295;67844;-87
2023/06/04 06:41:11;;;;;;;2.90;1.70;;;;;;;23.47;33.63;101194.77;105532;1295;67148;-86
2023/06/04 06:43:37;;;;;;;1.50;1.40;;;;;;;23.47;33.67;101194.21;105489;1297;67163;-87
2023/06/04 06:46:02;;;;;;;2.40;1.30;;;;;;;23.47;33.79;101194.05;105515;1297;68118;-87
2023/06/04 06:48:28;;;;;;;2.20;1.50;;;;;;;23.47;33.83;101198.58;105476;1297;68135;-87
2023/06/04 06:50:54;;;;;;;2.90;1.50;;;;;;;23.47;33.80;101202.07;105568;1297;68500;-87
2023/06/04 06:55:53;;;;;;;2.80;1.30;;;;;;;23.48;33.74;101202.42;105694;1296;72780;-87
2023/06/04 06:58:19;;;;;;;1.90;1.40;;;;;;;23.47;33.78;101199.85;105508;1297;67775;-87
2023/06/04 07:00:45;;;;;;;2.60;1.60;;;;;;;23.47;33.75;101197.34;105513;1297;68488;-87
2023/06/04 07:03:10;;;;;;;3.50;1.60;;;;;;;23.48;33.95;101194.25;105452;1297;67789;-87
2023/06/04 07:05:36;;;;;;;3.20;1.70;;;;;;;23.48;33.79;101197.70;105542;1297;67798;-87
2023/06/04 07:08:02;;;;;;;3.80;1.70;;;;;;;23.48;33.75;101200.52;105478;1297;67754;-87
2023/06/04 07:10:29;;;;;;;3.80;1.70;;;;;;;23.49;33.79;101199.60;101463;1297;5486594;-87
2023/06/04 07:12:55;;;;;;;3.80;1.80;;;;;;;23.49;33.79;101198.63;105461;1302;67782;-87
2023/06/04 07:15:21;;;;;;;2.80;1.40;;;;;;;23.50;33.89;101198.89;105551;1297;67850;-87
2023/06/04 07:17:46;;;;;;;2.70;1.60;;;;;;;23.50;33.90;101200.53;105507;1297;67957;-87
2023/06/04 07:22:46;;;;;;;2.50;1.40;;;;;;;23.52;33.76;101199.30;105692;1296;67698;-86
2023/06/04 07:25:11;;;;;;;3.20;1.60;;;;;;;23.52;33.67;101203.92;105557;1297;68340;-86
2023/06/04 07:27:37;;;;;;;3.90;1.70;;;;;;;23.54;33.90;101208.60;105729;1298;67843;-86
2023/06/04 07:30:03;;;;;;;2.50;1.60;;;;;;;23.54;33.87;101209.93;105490;1302;68498;-87
2023/06/04 07:32:29;;;;;;;3.50;1.40;;;;;;;23.55;33.92;101209.88;105574;1297;67944;-87
2023/06/04 07:34:55;;;;;;;2.50;1.60;;;;;;;23.56;33.80;101214.70;105493;1297;68555;-86
2023/06/04 07:37:20;;;;;;;4.30;1.70;;;;;;;23.57;33.79;101219.76;105505;1297;75182;-86
2023/06/04 07:39:46;;;;;;;3.90;1.60;;;;;;;23.58;33.80;101217.02;105494;1297;67806;-86
2023/06/04 07:42:13;;;;;;;3.30;1.70;;;;;;;23.59;33.81;101212.61;105484;1297;67796;-86
2023/06/04 07:44:38;;;;;;;2.30;1.50;;;;;;;23.59;33.88;101212.81;105480;1296;68045;-87
2023/06/04 07:47:05;;;;;;;4.10;1.60;;;;;;;23.60;33.77;101217.95;105404;1297;68171;-86
2023/06/04 07:49:38;;;;;;;2.70;1.60;;;;;;;23.60;33.81;101211.32;105536;1297;73041;-86
2023/06/04 07:52:04;;;;;;;3.90;1.50;;;;;;;23.61;33.82;101207.10;105538;1296;67841;-86
2023/06/04 07:54:31;;;;;;;2.50;1.60;;;;;;;23.61;33.90;101205.31;105490;1297;67193;-86
2023/06/04 07:56:57;;;;;;;2.70;1.60;;;;;;;23.62;33.70;101211.89;105605;1297;67774;-86
2023/06/04 07:59:23;;;;;;;4.30;1.80;;;;;;;23.63;33.85;101214.09;105602;1297;68090;-87
2023/06/04 08:01:50;;;;;;;7.60;2.00;;;;;;;23.64;33.80;101216.86;105603;1296;68087;-87
2023/06/04 08:04:16;;;;;;;3.40;1.90;;;;;;;23.64;33.81;101222.88;105667;1296;67738;-86
2023/06/04 08:06:42;;;;;;;5.00;1.70;;;;;;;23.64;33.91;101221.44;105467;1299;67852;-86
2023/06/04 08:09:09;;;;;;;4.70;1.90;;;;;;;23.65;33.93;101221.60;105646;1301;68013;-87
2023/06/04 08:11:35;;;;;;;2.80;1.50;;;;;;;23.66;33.75;101220.69;105601;1297;75319;-87
2023/06/04 08:16:35;;;;;;;2.90;1.80;;;;;;;23.66;33.74;101221.29;105622;1296;67675;-87
2023/06/04 08:19:00;;;;;;;3.20;1.80;;;;;;;23.67;33.71;101221.91;105511;1297;67768;-86
2023/06/04 08:21:26;;;;;;;2.90;1.70;;;;;;;23.68;33.92;101222.58;105502;1299;67998;-87
2023/06/04 08:23:52;;;;;;;4.70;1.60;;;;;;;23.68;33.97;101217.70;105418;1297;67754;-87
2023/06/04 08:26:19;;;;;;;2.00;1.60;;;;;;;23.69;33.91;101213.86;105505;1297;67997;-87
2023/06/04 08:28:47;;;;;;;6.00;1.80;;;;;;;23.69;33.88;101213.02;105413;1297;68412;-86
2023/06/04 08:31:13;;;;;;;3.10;1.50;;;;;;;23.70;33.87;101209.84;105490;1297;67809;-87
2023/06/04 08:33:38;;;;;;;4.20;1.90;;;;;;;23.70;33.86;101207.58;105492;1297;67947;-87
2023/06/04 08:36:04;;;;;;;3.70;1.60;;;;;;;23.70;33.79;101207.21;105487;1297;67862;-86
2023/06/04 08:38:30;;;;;;;3.60;2.00;;;;;;;23.69;33.89;101208.86;105552;1297;67826;-87
2023/06/04 08:43:35;;;;;;;3.20;1.80;;;;;;;23.69;33.80;101213.54;105573;1299;69533;-87
2023/06/04 08:46:04;;;;;;;5.80;1.80;;;;;;;23.70;33.78;101225.14;105478;1298;67470;-86
2023/06/04 08:48:30;;;;;;;5.60;2.00;;;;;;;23.70;33.73;101224.84;105438;1299;68171;-86
2023/06/04 08:50:56;;;;;;;5.10;1.80;;;;;;;23.70;33.81;101227.30;105435;1298;67812;-87
2023/06/04 08:53:22;;;;;;;4.90;2.10;;;;;;;23.71;33.72;101230.09;105427;1301;67710;-87
2023/06/04 08:55:49;;;;;;;2.70;1.60;;;;;;;23.72;33.76;101234.86;105481;1299;67839;-87
2023/06/04 08:58:15;;;;;;;3.50;1.80;;;;;;;23.72;33.69;101240.05;105426;1299;68659;-87
2023/06/04 09:00:41;;;;;;;4.20;1.70;;;;;;;23.72;33.73;101242.11;105383;1301;68963;-86
2023/06/04 09:03:06;;;;;;;4.40;1.80;;;;;;;23.73;33.81;101241.08;105420;1303;68435;-87
2023/06/04 09:05:32;;;;;;;3.40;1.90;;;;;;;23.73;33.64;101244.36;105442;1299;67818;-86
2023/06/04 09:08:01;;;;;;;3.00;2.00;;;;;;;23.73;33.76;101246.72;105435;1298;74468;-92
2023/06/04 09:10:27;;;;;;;3.30;1.90;;;;;;;23.73;33.68;101244.71;105358;1299;67827;-87
2023/06/04 09:12:53;;;;;;;2.90;1.90;;;;;;;23.74;33.65;101245.14;105351;1302;67123;-87
2023/06/04 09:15:18;;;;;;;4.40;1.90;;;;;;;23.74;33.60;101244.83;105379;1299;68128;-86
2023/06/04 09:17:44;;;;;;;4.50;1.70;;;;;;;23.74;33.57;101238.41;105420;1299;67809;-87
2023/06/04 09:20:20;;;;;;;4.00;1.80;;;;;;;23.74;33.59;101232.39;105448;1299;68135;-87
2023/06/04 09:22:49;;;;;;;2.50;1.50;;;;;;;23.74;33.67;101229.36;105392;1299;68867;-91
2023/06/04 09:25:25;;;;;;;5.40;1.90;;;;;;;23.75;33.56;101237.58;105326;1299;67310;-87
2023/06/04 09:27:50;;;;;;;4.00;2.00;;;;;;;23.75;33.63;101241.84;105384;1298;67863;-87
2023/06/04 09:30:16;;;;;;;4.70;1.90;;;;;;;23.75;33.41;101239.08;105426;1298;67815;-87
2023/06/04 09:32:42;;;;;;;2.80;1.60;;;;;;;23.75;33.52;101235.37;105420;1299;68205;-87
2023/06/04 09:35:14;;;;;;;4.20;1.60;;;;;;;23.76;33.52;101231.77;105635;1298;67039;-87
2023/06/04 09:37:40;;;;;;;7.30;2.10;;;;;;;23.76;33.49;101234.20;105824;1301;67000;-86
2023/06/04 09:40:07;;;;;;;3.60;1.90;;;;;;;23.75;33.43;101238.57;105745;1299;68131;-87
2023/06/04 09:42:46;;;;;;;3.90;1.80;;;;;;;23.75;33.40;101236.55;105316;1300;74516;-87
2023/06/04 09:45:12;;;;;;;4.40;1.80;;;;;;;23.75;33.37;101235.11;105260;1304;69106;-87
2023/06/04 09:47:41;;;;;;;4.10;1.60;;;;;;;23.76;33.52;101226.29;105330;1299;67905;-87
2023/06/04 09:50:08;;;;;;;4.00;1.50;;;;;;;23.75;33.29;101231.06;105297;1299;67645;-87
2023/06/04 09:52:34;;;;;;;6.10;1.70;;;;;;;23.76;33.28;101232.55;105424;1301;67960;-87
2023/06/04 09:55:00;;;;;;;6.80;1.90;;;;;;;23.76;33.24;101240.58;105274;1300;67848;-87
2023/06/04 09:57:26;;;;;;;3.10;1.60;;;;;;;23.76;33.35;101240.20;105284;1300;67170;-87
2023/06/04 09:59:51;;;;;;;4.80;1.70;;;;;;;23.77;33.28;101232.95;105295;1299;67252;-87
2023/06/04 10:02:19;;;;;;;4.00;1.90;;;;;;;23.78;33.19;101231.22;105318;1299;67810;-87
2023/06/04 10:04:56;;;;;;;4.80;2.10;;;;;;;23.78;33.40;101226.43;105419;1299;67702;-92
2023/06/04 10:07:22;;;;;;;4.00;2.40;;;;;;;23.79;33.25;101221.87;105331;1302;74748;-87
2023/06/04 10:09:48;;;;;;;2.50;1.70;;;;;;;23.79;33.29;101223.88;105473;1299;67897;-87
2023/06/04 10:12:16;;;;;;;3.00;1.50;;;;;;;23.79;33.25;101230.30;105252;1299;67129;-87
2023/06/04 10:14:56;;;;;;;5.90;1.80;;;;;;;23.79;33.19;101227.47;105245;1299;67809;-87
2023/06/04 10:17:23;;;;;;;3.70;1.70;;;;;;;23.80;33.21;101227.11;105445;1300;67259;-87
2023/06/04 10:19:51;;;;;;;3.40;1.80;;;;;;;23.80;33.12;101231.48;105363;1299;67828;-88
2023/06/04 10:22:17;;;;;;;3.60;1.60;;;;;;;23.79;33.07;101228.45;105234;1300;67754;-87
2023/06/04 10:24:43;;;;;;;3.90;1.90;;;;;;;23.80;33.06;101228.91;105329;1299;67770;-87
2023/06/04 10:27:10;;;;;;;1.90;1.50;;;;;;;23.79;33.08;101223.67;105329;1299;67745;-87
2023/06/04 10:29:37;;;;;;;3.70;2.00;;;;;;;23.80;32.99;101226.33;105397;1302;67908;-87
2023/06/04 10:32:03;;;;;;;3.20;1.90;;;;;;;23.80;33.02;101229.63;105364;1299;67990;-87
2023/06/04 10:34:28;;;;;;;3.10;1.60;;;;;;;23.80;33.11;101222.12;105257;1300;67808;-87
2023/06/04 10:37:05;;;;;;;3.10;1.70;;;;;;;23.80;33.02;101221.34;105415;1297;67744;-87
2023/06/04 10:39:35;;;;;;;2.60;1.60;;;;;;;23.81;33.01;101224.54;105511;1299;68040;-87
2023/06/04 10:42:00;;;;;;;3.30;1.70;;;;;;;23.81;33.08;101227.67;105488;1297;67098;-87
2023/06/04 10:44:26;;;;;;;3.70;1.70;;;;;;;23.81;33.24;101222.84;105620;1297;67939;-87
2023/06/04 10:46:51;;;;;;;3.30;1.60;;;;;;;23.82;33.16;101215.75;105618;1297;67737;-87
2023/06/04 10:52:18;;;;;;;2.60;1.60;;;;;;;23.81;33.22;101215.55;105686;1296;554584;-85
2023/06/04 10:55:03;;;;;;;3.40;1.70;;;;;;;23.81;32.98;101211.29;105061;1297;553723;-87
2023/06/04 10:57:29;;;;;;;2.80;1.60;;;;;;;23.82;33.14;101208.41;105487;1297;74523;-87
2023/06/04 10:59:55;;;;;;;2.50;1.70;;;;;;;23.82;33.07;101206.71;105456;1297;67914;-87
2023/06/04 11:02:21;;;;;;;4.00;1.60;;;;;;;23.82;33.16;101206.46;105644;1297;67690;-86
2023/06/04 11:04:47;;;;;;;2.00;1.70;;;;;;;23.82;33.13;101204.03;105786;1297;68644;-87
2023/06/04 11:07:13;;;;;;;5.80;1.70;;;;;;;23.82;33.16;101203.05;105815;1296;67133;-87
2023/06/04 11:09:47;;;;;;;2.50;1.70;;;;;;;23.81;33.00;101208.09;105772;1300;67090;-87
2023/06/04 11:12:13;;;;;;;4.10;1.60;;;;;;;23.82;33.13;101208.96;105668;1297;67164;-87
2023/06/04 11:14:39;;;;;;;3.00;1.80;;;;;;;23.82;33.16;101205.59;105388;1302;67256;-86
2023/06/04 11:17:12;;;;;;;1.90;1.40;;;;;;;23.82;33.05;101201.67;105419;1296;67106;-87
2023/06/04 11:19:37;;;;;;;3.20;1.70;;;;;;;23.82;32.88;101198.69;105450;1296;67621;-87
2023/06/04 11:22:04;;;;;;;3.10;1.70;;;;;;;23.82;33.17;101198.89;105458;1297;68955;-86
2023/06/04 11:24:30;;;;;;;3.00;1.80;;;;;;;23.82;33.11;101200.29;105440;1297;69044;-86
2023/06/04 11:26:59;;;;;;;3.60;1.60;;;;;;;23.82;33.02;101194.89;105350;1298;67715;-86
2023/06/04 11:29:25;;;;;;;4.60;1.50;;;;;;;23.83;33.05;101192.73;105429;1297;67023;-87
2023/06/04 11:31:50;;;;;;;3.40;1.60;;;;;;;23.83;33.07;101198.38;105336;1297;67648;-87
2023/06/04 11:34:32;;;;;;;2.40;1.60;;;;;;;23.83;33.23;101192.10;105578;1297;67839;-87
2023/06/04 11:37:08;;;;;;;3.50;1.60;;;;;;;23.83;33.30;101196.32;105445;1297;68547;-86
2023/06/04 11:39:34;;;;;;;4.00;2.10;;;;;;;23.83;33.21;101194.06;105417;1297;68119;-87
2023/06/04 11:42:04;;;;;;;4.20;1.90;;;;;;;23.84;33.19;101185.67;105414;1297;67712;-86
2023/06/04 11:44:29;;;;;;;3.30;1.50;;;;;;;23.84;33.22;101189.34;105370;1297;67730;-87
2023/06/04 11:46:55;;;;;;;3.40;1.90;;;;;;;23.84;33.01;101189.48;105430;1297;67830;-87
2023/06/04 11:49:30;;;;;;;2.90;1.90;;;;;;;23.85;33.13;101185.02;105432;1297;67833;-91
2023/06/04 11:51:56;;;;;;;2.60;1.60;;;;;;;23.85;33.10;101188.56;105420;1297;67734;-86